Time;durP1;ratioP1;P1;durP2;ratioP2;P2;SDS_P1;SDS_P2;PMS_P1;PMS_P2;Temp;Humidity;BMP_temperature;BMP_pressure;BME280_temperature;BME280_humidity;BME280_pressure;Samples;Min_cycle;Max_cycle;Signal;HPM_P1;HPM_P2
2022/11/23 00:04:07;;;;;;;3.67;1.83;;;;;;;;;;10484934;28;20047;-74
2022/11/23 00:09:19;;;;;;;4.32;2.15;;;;;;;;;;10484145;28;20087;-74
2022/11/23 00:14:22;;;;;;;;;;;;;;;;;;10485579;28;20095;-74
2022/11/23 00:19:24;;;;;;;3.78;2.13;;;;;;;;;;10484393;28;19920;-75
2022/11/23 00:24:29;;;;;;;6.63;2.03;;;;;;;;;;10488057;28;20082;-75
2022/11/23 00:29:32;;;;;;;4.65;2.05;;;;;;;;;;10480011;28;20526;-74
2022/11/23 00:34:35;;;;;;;4.68;2.10;;;;;;;;;;10483578;28;20045;-77
2022/11/23 00:39:39;;;;;;;5.18;2.20;;;;;;;;;;10485476;28;20036;-77
2022/11/23 00:44:42;;;;;;;4.70;1.48;;;;;;;;;;10486764;28;20052;-77
2022/11/23 00:49:44;;;;;;;6.07;2.00;;;;;;;;;;10482864;28;20049;-74
2022/11/23 00:54:48;;;;;;;2.97;1.33;;;;;;;;;;10484006;28;20040;-74
2022/11/23 00:59:50;;;;;;;1.13;0.80;;;;;;;;;;10473401;28;20501;-74
2022/11/23 01:04:53;;;;;;;5.38;1.70;;;;;;;;;;10488309;28;20044;-75
2022/11/23 01:09:57;;;;;;;3.60;1.30;;;;;;;;;;10488572;28;20033;-75
2022/11/23 01:15:00;;;;;;;;;;;;;;;;;;10480972;28;20037;-74
2022/11/23 01:20:03;;;;;;;4.82;1.40;;;;;;;;;;10483461;28;19924;-75
2022/11/23 01:25:07;;;;;;;5.60;1.77;;;;;;;;;;10470904;28;20041;-73
2022/11/23 01:30:11;;;;;;;4.35;1.55;;;;;;;;;;10479624;28;20139;-74
2022/11/23 01:35:14;;;;;;;1.52;0.40;;;;;;;;;;10491254;28;20048;-75
2022/11/23 01:40:18;;;;;;;5.57;1.95;;;;;;;;;;10486837;28;20397;-75
2022/11/23 01:45:21;;;;;;;;;;;;;;;;;;10462043;28;20044;-75
2022/11/23 01:50:33;;;;;;;2.83;1.13;;;;;;;;;;10485985;28;20042;-75
2022/11/23 01:55:37;;;;;;;6.45;1.70;;;;;;;;;;10498241;28;20064;-77
2022/11/23 02:00:40;;;;;;;2.20;1.23;;;;;;;;;;10474775;28;20037;-76
2022/11/23 02:05:44;;;;;;;4.32;1.55;;;;;;;;;;10473173;28;20048;-74
2022/11/23 02:10:48;;;;;;;5.07;1.52;;;;;;;;;;10481903;28;20541;-75
2022/11/23 02:15:53;;;;;;;1.25;0.65;;;;;;;;;;10471224;28;20048;-75
2022/11/23 02:20:56;;;;;;;2.45;1.30;;;;;;;;;;10473209;28;20037;-74
2022/11/23 02:26:02;;;;;;;2.25;0.88;;;;;;;;;;10483407;28;20052;-75
2022/11/23 02:31:04;;;;;;;2.17;0.90;;;;;;;;;;10486657;28;20048;-75
2022/11/23 02:36:26;;;;;;;2.42;1.10;;;;;;;;;;10477437;28;20086;-75
2022/11/23 02:41:34;;;;;;;3.08;1.33;;;;;;;;;;10471488;28;20626;-74
2022/11/23 02:46:36;;;;;;;5.13;1.38;;;;;;;;;;10471314;28;20047;-75
2022/11/23 02:51:39;;;;;;;1.00;0.80;;;;;;;;;;10483022;28;20052;-75
2022/11/23 02:56:43;;;;;;;0.47;0.40;;;;;;;;;;10484094;28;20055;-76
2022/11/23 03:01:46;;;;;;;0.30;0.30;;;;;;;;;;10491592;28;20130;-77
2022/11/23 03:06:49;;;;;;;1.97;0.90;;;;;;;;;;10457578;28;20067;-75
2022/11/23 03:11:53;;;;;;;3.20;1.30;;;;;;;;;;10475867;28;20045;-75
2022/11/23 03:16:55;;;;;;;0.88;0.70;;;;;;;;;;10475221;28;20090;-74
2022/11/23 03:21:58;;;;;;;3.10;0.90;;;;;;;;;;10480711;28;20044;-75
2022/11/23 03:27:03;;;;;;;0.95;0.55;;;;;;;;;;10476875;28;20505;-75
2022/11/23 03:32:06;;;;;;;2.47;1.17;;;;;;;;;;10472575;28;20049;-74
2022/11/23 03:37:08;;;;;;;2.17;1.20;;;;;;;;;;10474203;28;20089;-74
2022/11/23 03:42:12;;;;;;;0.70;0.38;;;;;;;;;;10475250;28;20044;-74
2022/11/23 03:47:15;;;;;;;1.48;0.82;;;;;;;;;;10481948;28;20103;-74
2022/11/23 03:52:18;;;;;;;1.98;0.20;;;;;;;;;;10473014;28;20040;-74
2022/11/23 03:57:22;;;;;;;2.35;1.27;;;;;;;;;;10481602;28;20068;-74
2022/11/23 04:02:25;;;;;;;;;;;;;;;;;;10465164;28;20086;-74
2022/11/23 04:07:28;;;;;;;3.53;1.25;;;;;;;;;;10479231;28;19975;-74
2022/11/23 04:12:32;;;;;;;1.80;1.00;;;;;;;;;;10475134;28;20124;-74
2022/11/23 04:17:34;;;;;;;3.42;1.33;;;;;;;;;;10461254;28;20383;-74
2022/11/23 04:22:45;;;;;;;2.60;1.05;;;;;;;;;;10476658;28;20045;-75
2022/11/23 04:27:49;;;;;;;4.68;1.58;;;;;;;;;;10482383;28;20040;-76
2022/11/23 04:32:51;;;;;;;5.53;1.48;;;;;;;;;;10474057;28;20407;-75
2022/11/23 04:37:54;;;;;;;3.55;1.35;;;;;;;;;;10479597;28;20449;-75
2022/11/23 04:42:58;;;;;;;1.05;0.32;;;;;;;;;;10486577;28;20098;-77
2022/11/23 04:48:03;;;;;;;2.97;1.35;;;;;;;;;;10484806;28;20040;-74
2022/11/23 04:53:06;;;;;;;3.15;1.50;;;;;;;;;;10481458;28;21270;-77
2022/11/23 04:58:10;;;;;;;3.47;1.10;;;;;;;;;;10489400;28;20060;-74
2022/11/23 05:03:16;;;;;;;3.67;1.10;;;;;;;;;;10482219;28;20032;-75
2022/11/23 05:08:18;;;;;;;4.43;1.33;;;;;;;;;;10481920;28;20048;-75
2022/11/23 05:13:24;;;;;;;4.57;1.65;;;;;;;;;;10477976;28;20192;-74
2022/11/23 05:18:27;;;;;;;5.13;1.48;;;;;;;;;;10451052;28;20041;-76
2022/11/23 05:23:30;;;;;;;6.00;1.30;;;;;;;;;;10481212;28;20075;-76
2022/11/23 05:28:34;;;;;;;2.95;1.17;;;;;;;;;;10477972;28;20050;-74
2022/11/23 05:33:42;;;;;;;3.40;1.40;;;;;;;;;;10475176;28;20397;-74
2022/11/23 05:38:49;;;;;;;1.58;0.70;;;;;;;;;;10487814;28;20044;-74
2022/11/23 05:43:52;;;;;;;3.63;1.13;;;;;;;;;;10485250;28;20130;-74
2022/11/23 05:48:55;;;;;;;2.53;1.30;;;;;;;;;;10480164;28;20449;-74
2022/11/23 05:53:58;;;;;;;7.57;2.30;;;;;;;;;;10477905;28;20056;-74
2022/11/23 05:59:02;;;;;;;4.05;1.33;;;;;;;;;;10485136;28;20283;-75
2022/11/23 06:04:06;;;;;;;;;;;;;;;;;;10481249;28;20053;-75
2022/11/23 06:09:08;;;;;;;3.93;1.40;;;;;;;;;;10482149;28;19928;-75
2022/11/23 06:14:12;;;;;;;2.25;1.27;;;;;;;;;;10477886;28;20166;-75
2022/11/23 06:19:16;;;;;;;2.08;1.08;;;;;;;;;;10480273;28;20048;-75
2022/11/23 06:24:18;;;;;;;2.53;1.38;;;;;;;;;;10477322;28;20036;-77
2022/11/23 06:29:23;;;;;;;1.65;0.13;;;;;;;;;;10476872;28;20025;-74
2022/11/23 06:34:25;;;;;;;4.57;1.52;;;;;;;;;;10472739;28;20083;-75
2022/11/23 06:39:28;;;;;;;1.33;0.55;;;;;;;;;;10479004;28;20029;-76
2022/11/23 06:44:32;;;;;;;4.32;1.38;;;;;;;;;;10482387;28;20059;-75
2022/11/23 06:49:35;;;;;;;4.20;1.50;;;;;;;;;;10478854;28;20454;-75
2022/11/23 06:54:38;;;;;;;4.20;1.80;;;;;;;;;;10478963;28;20032;-75
2022/11/23 06:59:44;;;;;;;4.57;1.23;;;;;;;;;;10485601;28;20063;-75
2022/11/23 07:04:46;;;;;;;13.00;3.80;;;;;;;;;;10480322;28;20090;-75
2022/11/23 07:09:49;;;;;;;6.40;1.55;;;;;;;;;;10485687;28;20036;-74
2022/11/23 07:14:53;;;;;;;7.82;2.15;;;;;;;;;;10460325;28;20163;-74
2022/11/23 07:19:56;;;;;;;5.05;2.08;;;;;;;;;;10463003;28;20464;-75
2022/11/23 07:25:17;;;;;;;12.70;2.53;;;;;;;;;;10556478;27;20851;-76
2022/11/23 07:30:20;;;;;;;17.67;3.75;;;;;;;;;;10559841;28;20048;-74
2022/11/23 07:35:31;;;;;;;11.82;3.83;;;;;;;;;;10546396;28;20050;-75
2022/11/23 07:40:35;;;;;;;5.22;2.00;;;;;;;;;;10548581;28;20224;-75
2022/11/23 07:45:38;;;;;;;1.77;1.15;;;;;;;;;;10553315;28;20036;-75
2022/11/23 07:50:41;;;;;;;3.53;1.33;;;;;;;;;;10545842;28;20035;-75
2022/11/23 07:55:45;;;;;;;4.30;1.58;;;;;;;;;;10530664;28;20052;-75
2022/11/23 08:00:48;;;;;;;23.95;7.10;;;;;;;;;;10547992;28;20119;-74
2022/11/23 08:05:51;;;;;;;3.60;1.00;;;;;;;;;;10552312;28;20225;-75
2022/11/23 08:10:55;;;;;;;20.67;6.43;;;;;;;;;;10555273;28;20302;-75
2022/11/23 08:15:57;;;;;;;15.05;3.10;;;;;;;;;;10549726;28;20032;-74
2022/11/23 08:21:01;;;;;;;8.38;2.60;;;;;;;;;;10544835;28;20319;-75
2022/11/23 08:26:05;;;;;;;2.05;0.75;;;;;;;;;;10547628;28;20039;-74
2022/11/23 08:31:15;;;;;;;1.73;0.82;;;;;;;;;;10553453;28;20043;-75
2022/11/23 08:36:17;;;;;;;3.53;1.08;;;;;;;;;;10513619;28;20515;-75
2022/11/23 08:41:21;;;;;;;5.80;1.70;;;;;;;;;;10508008;28;20040;-74
2022/11/23 08:46:24;;;;;;;8.00;2.35;;;;;;;;;;10504618;28;20504;-76
2022/11/23 08:51:26;;;;;;;3.03;1.55;;;;;;;;;;10496416;28;20501;-74
2022/11/23 08:56:30;;;;;;;19.00;4.15;;;;;;;;;;10522554;28;20044;-74
2022/11/23 09:01:33;;;;;;;3.75;1.60;;;;;;;;;;10503913;28;20104;-74
2022/11/23 09:06:36;;;;;;;3.58;1.20;;;;;;;;;;10514126;28;20591;-75
2022/11/23 09:11:41;;;;;;;4.18;1.40;;;;;;;;;;10518679;28;20516;-74
2022/11/23 09:16:43;;;;;;;1.20;0.80;;;;;;;;;;10508317;28;20044;-74
2022/11/23 09:21:46;;;;;;;4.40;1.27;;;;;;;;;;10485958;28;20032;-74
2022/11/23 09:26:49;;;;;;;14.90;2.78;;;;;;;;;;10513374;28;20044;-76
2022/11/23 09:31:52;;;;;;;6.38;2.17;;;;;;;;;;10516491;28;20489;-76
2022/11/23 09:36:56;;;;;;;7.10;1.80;;;;;;;;;;10505571;28;20402;-76
2022/11/23 09:41:59;;;;;;;;;;;;;;;;;;10519619;28;20032;-74
2022/11/23 09:47:08;;;;;;;3.35;2.00;;;;;;;;;;10507236;28;19930;-74
2022/11/23 09:52:14;;;;;;;3.67;2.08;;;;;;;;;;10516959;28;20041;-77
2022/11/23 09:57:19;;;;;;;7.45;2.70;;;;;;;;;;10498219;28;20433;-76
2022/11/23 10:02:27;;;;;;;2.90;1.98;;;;;;;;;;10512290;28;20028;-76
2022/11/23 10:07:39;;;;;;;5.35;2.40;;;;;;;;;;10515298;28;20071;-76
2022/11/23 10:12:47;;;;;;;5.03;1.92;;;;;;;;;;10515511;28;20055;-75
2022/11/23 10:18:02;;;;;;;4.00;2.22;;;;;;;;;;10512446;28;20048;-75
2022/11/23 10:23:12;;;;;;;5.03;2.40;;;;;;;;;;10513484;28;20441;-75
2022/11/23 10:28:17;;;;;;;9.23;3.13;;;;;;;;;;10515509;28;20044;-76
2022/11/23 10:33:26;;;;;;;10.45;4.05;;;;;;;;;;10505608;28;20170;-75
2022/11/23 10:38:29;;;;;;;6.93;2.38;;;;;;;;;;10488012;28;20056;-74
2022/11/23 10:43:34;;;;;;;2.92;1.80;;;;;;;;;;10513709;28;20039;-74
2022/11/23 10:48:38;;;;;;;3.65;1.15;;;;;;;;;;10519136;28;20047;-74
2022/11/23 10:53:41;;;;;;;1.90;1.17;;;;;;;;;;10523108;28;20040;-77
2022/11/23 10:58:45;;;;;;;2.60;1.33;;;;;;;;;;10508565;28;20044;-74
2022/11/23 11:03:49;;;;;;;4.60;2.00;;;;;;;;;;10511350;28;20101;-74
2022/11/23 11:08:53;;;;;;;7.47;2.92;;;;;;;;;;10516671;28;20048;-74
2022/11/23 11:14:04;;;;;;;5.60;2.00;;;;;;;;;;10513868;28;20400;-76
2022/11/23 11:19:21;;;;;;;4.45;1.67;;;;;;;;;;10511995;28;20895;-75
2022/11/23 11:24:28;;;;;;;3.10;0.95;;;;;;;;;;10512999;28;20055;-75
2022/11/23 11:29:32;;;;;;;10.38;2.40;;;;;;;;;;10509657;28;20072;-74
2022/11/23 11:34:43;;;;;;;4.40;1.48;;;;;;;;;;10515532;28;20032;-75
2022/11/23 11:39:49;;;;;;;4.13;1.30;;;;;;;;;;10515266;28;20040;-75
2022/11/23 11:44:54;;;;;;;7.10;2.42;;;;;;;;;;10516369;28;20278;-75
2022/11/23 11:49:59;;;;;;;2.35;0.80;;;;;;;;;;10509993;28;20391;-74
2022/11/23 11:55:05;;;;;;;1.50;1.00;;;;;;;;;;10510930;28;20066;-74
2022/11/23 12:00:12;;;;;;;4.00;1.70;;;;;;;;;;10514196;28;20032;-76
2022/11/23 12:05:20;;;;;;;3.63;1.40;;;;;;;;;;10514012;28;20428;-74
2022/11/23 12:10:29;;;;;;;1.45;1.38;;;;;;;;;;10495084;28;20440;-75
2022/11/23 12:15:34;;;;;;;2.75;1.60;;;;;;;;;;10514544;28;20044;-74
2022/11/23 12:20:56;;;;;;;2.10;1.48;;;;;;;;;;10519441;28;20442;-77
2022/11/23 12:26:06;;;;;;;1.88;1.48;;;;;;;;;;10514008;28;20635;-77
2022/11/23 12:31:19;;;;;;;1.52;1.42;;;;;;;;;;10514521;28;20097;-77
2022/11/23 12:36:29;;;;;;;1.70;1.40;;;;;;;;;;10516778;28;20050;-77
2022/11/23 12:41:39;;;;;;;2.75;1.50;;;;;;;;;;10515183;28;20060;-74
2022/11/23 12:46:44;;;;;;;1.88;1.40;;;;;;;;;;10513368;28;20257;-75
2022/11/23 12:51:52;;;;;;;3.55;1.80;;;;;;;;;;10499175;28;20033;-75
2022/11/23 12:57:01;;;;;;;3.60;1.60;;;;;;;;;;10523667;28;20093;-74
2022/11/23 13:02:04;;;;;;;3.55;1.65;;;;;;;;;;10519348;28;20032;-74
2022/11/23 13:07:23;;;;;;;2.20;1.30;;;;;;;;;;10518603;28;20040;-76
2022/11/23 13:12:48;;;;;;;1.25;0.38;;;;;;;;;;10516987;28;20045;-75
2022/11/23 13:17:55;;;;;;;3.60;0.87;;;;;;;;;;10495721;28;20045;-75
2022/11/23 13:22:58;;;;;;;1.27;0.88;;;;;;;;;;10518709;28;20044;-76
2022/11/23 13:28:04;;;;;;;4.32;0.63;;;;;;;;;;10515247;28;20397;-77
2022/11/23 13:33:21;;;;;;;1.38;0.63;;;;;;;;;;10514930;28;20482;-76
2022/11/23 13:38:39;;;;;;;2.50;1.15;;;;;;;;;;10499508;28;20508;-76
2022/11/23 13:43:43;;;;;;;2.53;0.60;;;;;;;;;;10518764;28;20043;-76
2022/11/23 13:48:47;;;;;;;1.58;0.68;;;;;;;;;;10511049;28;20092;-76
2022/11/23 13:54:01;;;;;;;1.75;0.40;;;;;;;;;;10520331;28;20059;-76
2022/11/23 13:59:22;;;;;;;1.98;0.32;;;;;;;;;;10520326;28;20032;-76
2022/11/23 14:04:27;;;;;;;3.97;0.93;;;;;;;;;;10521752;28;20051;-74
2022/11/23 14:09:33;;;;;;;0.47;0.25;;;;;;;;;;10518126;28;20511;-75
2022/11/23 14:14:44;;;;;;;1.25;0.60;;;;;;;;;;10505072;28;20501;-75
2022/11/23 14:20:02;;;;;;;1.30;0.47;;;;;;;;;;10494693;28;20097;-75
2022/11/23 14:25:19;;;;;;;3.90;0.65;;;;;;;;;;10513385;28;20126;-76
2022/11/23 14:30:32;;;;;;;4.07;1.20;;;;;;;;;;10516459;28;20089;-75
2022/11/23 14:35:42;;;;;;;2.88;0.65;;;;;;;;;;10510345;28;20032;-75
2022/11/23 14:40:53;;;;;;;2.97;1.05;;;;;;;;;;10521445;28;20123;-74
2022/11/23 14:46:00;;;;;;;1.13;0.65;;;;;;;;;;10501845;28;20047;-76
2022/11/23 14:51:06;;;;;;;0.98;0.80;;;;;;;;;;10498550;28;20032;-74
2022/11/23 14:56:20;;;;;;;2.13;0.85;;;;;;;;;;10518020;28;20066;-74
2022/11/23 15:01:25;;;;;;;3.15;0.73;;;;;;;;;;10514374;28;20056;-75
2022/11/23 15:06:31;;;;;;;2.67;0.82;;;;;;;;;;10515051;28;20047;-74
2022/11/23 15:11:36;;;;;;;1.55;1.20;;;;;;;;;;10520035;28;20409;-75
2022/11/23 15:16:41;;;;;;;8.93;2.47;;;;;;;;;;10503751;28;20348;-75
2022/11/23 15:21:46;;;;;;;1.65;0.80;;;;;;;;;;10511502;28;20317;-75
2022/11/23 15:26:49;;;;;;;8.20;0.95;;;;;;;;;;10519245;28;20040;-74
2022/11/23 15:31:52;;;;;;;1.38;0.90;;;;;;;;;;10506435;28;20505;-75
2022/11/23 15:37:16;;;;;;;2.38;1.02;;;;;;;;;;10490937;28;20040;-76
2022/11/23 15:42:19;;;;;;;3.33;0.93;;;;;;;;;;10504984;28;20048;-75
2022/11/23 15:47:25;;;;;;;6.10;1.27;;;;;;;;;;10516288;28;20043;-74
2022/11/23 15:52:33;;;;;;;1.77;1.17;;;;;;;;;;10501403;28;20281;-75
2022/11/23 15:57:36;;;;;;;1.15;0.75;;;;;;;;;;10515263;28;20040;-76
2022/11/23 16:02:39;;;;;;;5.17;1.07;;;;;;;;;;10530700;28;20589;-76
2022/11/23 16:07:51;;;;;;;3.22;1.20;;;;;;;;;;10489716;28;20028;-76
2022/11/23 16:12:55;;;;;;;4.47;1.73;;;;;;;;;;10516386;28;20048;-76
2022/11/23 16:17:58;;;;;;;5.68;1.92;;;;;;;;;;10517679;28;20040;-75
2022/11/23 16:23:02;;;;;;;5.20;1.85;;;;;;;;;;10519830;28;20145;-78
2022/11/23 16:28:05;;;;;;;6.95;1.90;;;;;;;;;;10515450;28;20044;-75
2022/11/23 16:33:13;;;;;;;3.23;1.60;;;;;;;;;;10516038;28;20067;-75
2022/11/23 16:38:20;;;;;;;8.68;1.58;;;;;;;;;;10527237;28;20301;-75
2022/11/23 16:43:23;;;;;;;4.90;2.13;;;;;;;;;;10516564;28;20500;-77
2022/11/23 16:48:35;;;;;;;3.63;1.90;;;;;;;;;;10518642;28;20430;-76
2022/11/23 16:53:40;;;;;;;2.28;1.27;;;;;;;;;;10497889;28;20137;-76
2022/11/23 16:59:03;;;;;;;;;;;;;;;;;;10519454;28;20040;-76
2022/11/23 17:04:06;;;;;;;3.13;1.55;;;;;;;;;;10514312;28;19958;-75
2022/11/23 17:09:10;;;;;;;4.57;1.60;;;;;;;;;;10515049;28;20105;-78
2022/11/23 17:14:14;;;;;;;5.75;1.98;;;;;;;;;;10524121;28;20051;-76
2022/11/23 17:19:21;;;;;;;8.05;2.60;;;;;;;;;;10497231;28;20040;-77
2022/11/23 17:24:26;;;;;;;19.95;6.63;;;;;;;;;;10519297;28;20032;-77
2022/11/23 17:29:28;;;;;;;12.90;4.03;;;;;;;;;;10517274;28;20044;-75
2022/11/23 17:34:31;;;;;;;16.60;5.93;;;;;;;;;;10515381;28;20312;-77
2022/11/23 17:39:35;;;;;;;9.25;3.50;;;;;;;;;;10513761;28;20093;-76
2022/11/23 17:44:38;;;;;;;24.45;10.40;;;;;;;;;;10518882;28;20036;-75
2022/11/23 17:49:40;;;;;;;12.68;5.53;;;;;;;;;;10513808;28;20497;-75
2022/11/23 17:54:44;;;;;;;7.35;3.42;;;;;;;;;;10515697;28;20494;-77
2022/11/23 17:59:47;;;;;;;9.23;4.65;;;;;;;;;;10519028;28;20058;-75
2022/11/23 18:04:49;;;;;;;10.70;3.92;;;;;;;;;;10519275;28;20064;-75
2022/11/23 18:09:54;;;;;;;11.43;3.75;;;;;;;;;;10516970;28;20078;-75
2022/11/23 18:14:56;;;;;;;6.53;3.05;;;;;;;;;;10516072;28;20032;-76
2022/11/23 18:19:59;;;;;;;5.60;2.42;;;;;;;;;;10511501;28;20171;-75
2022/11/23 18:25:03;;;;;;;8.75;4.63;;;;;;;;;;10515140;28;20039;-75
2022/11/23 18:30:07;;;;;;;3.85;2.38;;;;;;;;;;10519085;28;20113;-75
2022/11/23 18:35:10;;;;;;;2.70;1.48;;;;;;;;;;10515348;28;20178;-76
2022/11/23 18:40:14;;;;;;;3.70;2.13;;;;;;;;;;10497466;28;20048;-76
2022/11/23 18:45:16;;;;;;;10.00;3.97;;;;;;;;;;10520928;28;20481;-76
2022/11/23 18:50:19;;;;;;;12.10;4.18;;;;;;;;;;10512538;28;20047;-76
2022/11/23 18:55:23;;;;;;;5.72;2.47;;;;;;;;;;10515028;28;20418;-75
2022/11/23 19:00:26;;;;;;;6.93;2.15;;;;;;;;;;10497981;28;20040;-75
2022/11/23 19:05:32;;;;;;;6.68;3.05;;;;;;;;;;10501105;28;20109;-75
2022/11/23 19:10:36;;;;;;;6.18;2.40;;;;;;;;;;10511706;28;20114;-75
2022/11/23 19:15:39;;;;;;;4.38;2.03;;;;;;;;;;10496758;28;20044;-76
2022/11/23 19:20:42;;;;;;;3.90;1.80;;;;;;;;;;10517244;28;20446;-77
2022/11/23 19:25:46;;;;;;;4.20;2.13;;;;;;;;;;10499171;28;20048;-76
2022/11/23 19:30:48;;;;;;;;;;;;;;;;;;10494308;28;20041;-75
2022/11/23 19:35:51;;;;;;;2.28;1.52;;;;;;;;;;10512477;28;20022;-76
2022/11/23 19:40:56;;;;;;;3.37;1.13;;;;;;;;;;10515493;28;20062;-75
2022/11/23 19:45:59;;;;;;;4.68;2.38;;;;;;;;;;10509153;28;20028;-75
2022/11/23 19:51:03;;;;;;;6.20;2.80;;;;;;;;;;10517531;28;20044;-75
2022/11/23 19:56:08;;;;;;;3.63;1.95;;;;;;;;;;10512777;28;20048;-76
2022/11/23 20:01:12;;;;;;;4.15;1.92;;;;;;;;;;10511521;28;20036;-76
2022/11/23 20:06:15;;;;;;;2.83;1.30;;;;;;;;;;10514230;28;20040;-75
2022/11/23 20:11:27;;;;;;;3.13;1.20;;;;;;;;;;10511797;28;20333;-75
2022/11/23 20:16:31;;;;;;;2.33;1.40;;;;;;;;;;10508467;28;20025;-75
2022/11/23 20:21:34;;;;;;;2.10;0.95;;;;;;;;;;10516336;28;20576;-76
2022/11/23 20:26:39;;;;;;;1.58;0.88;;;;;;;;;;10516073;28;20146;-76
2022/11/23 20:31:42;;;;;;;4.45;1.30;;;;;;;;;;10524801;28;20133;-75
2022/11/23 20:36:45;;;;;;;2.00;1.08;;;;;;;;;;10517954;28;20036;-75
2022/11/23 20:41:49;;;;;;;2.70;1.23;;;;;;;;;;10521009;28;20425;-74
2022/11/23 20:46:52;;;;;;;2.17;1.23;;;;;;;;;;10514863;28;20492;-76
2022/11/23 20:52:04;;;;;;;2.13;1.00;;;;;;;;;;10519057;28;20058;-76
2022/11/23 20:57:09;;;;;;;3.30;1.42;;;;;;;;;;10518869;28;20035;-75
2022/11/23 21:02:13;;;;;;;3.83;1.80;;;;;;;;;;10524010;28;20125;-77
2022/11/23 21:07:16;;;;;;;3.85;2.00;;;;;;;;;;10530389;28;20094;-76
2022/11/23 21:17:41;;;;;;;1.85;1.20;;;;;;;;;;10523802;28;20061;-78
2022/11/23 21:22:46;;;;;;;1.10;0.60;;;;;;;;;;10518409;28;20456;-75
2022/11/23 21:27:50;;;;;;;1.13;0.90;;;;;;;;;;10497802;28;20035;-76
2022/11/23 21:32:53;;;;;;;1.30;1.02;;;;;;;;;;10513004;28;20465;-76
2022/11/23 21:37:56;;;;;;;1.63;1.02;;;;;;;;;;10513571;28;20046;-75
2022/11/23 21:43:00;;;;;;;0.88;0.85;;;;;;;;;;10516845;28;20493;-75
2022/11/23 21:48:02;;;;;;;2.17;1.20;;;;;;;;;;10518028;28;20413;-75
2022/11/23 21:53:06;;;;;;;0.90;0.85;;;;;;;;;;10502501;28;20471;-75
2022/11/23 21:58:10;;;;;;;4.85;2.30;;;;;;;;;;10516484;28;20047;-76
2022/11/23 22:03:18;;;;;;;2.13;1.05;;;;;;;;;;10519546;28;20040;-76
2022/11/23 22:08:21;;;;;;;1.88;0.93;;;;;;;;;;10517755;28;20477;-75
2022/11/23 22:13:32;;;;;;;2.40;1.40;;;;;;;;;;10516968;28;20465;-74
2022/11/23 22:18:38;;;;;;;2.78;1.55;;;;;;;;;;10518338;28;20138;-74
2022/11/23 22:23:41;;;;;;;4.03;2.00;;;;;;;;;;10515222;28;20090;-75
2022/11/23 22:28:46;;;;;;;2.20;1.60;;;;;;;;;;10518771;28;20068;-76
2022/11/23 22:33:48;;;;;;;2.63;1.35;;;;;;;;;;10494270;28;20062;-75
2022/11/23 22:38:53;;;;;;;3.08;1.80;;;;;;;;;;10517037;28;20043;-75
2022/11/23 22:44:05;;;;;;;3.75;1.85;;;;;;;;;;10512913;28;20474;-75
2022/11/23 22:49:08;;;;;;;2.20;1.30;;;;;;;;;;10517440;28;20257;-75
2022/11/23 22:54:12;;;;;;;2.55;1.63;;;;;;;;;;10516315;28;20154;-76
2022/11/23 22:59:16;;;;;;;4.22;2.40;;;;;;;;;;10518539;28;20421;-75
2022/11/23 23:04:19;;;;;;;4.43;2.55;;;;;;;;;;10496375;28;20078;-75
2022/11/23 23:09:21;;;;;;;6.22;2.13;;;;;;;;;;10513421;28;20513;-75
2022/11/23 23:14:25;;;;;;;4.53;2.30;;;;;;;;;;10515275;28;20662;-76
2022/11/23 23:19:28;;;;;;;5.63;2.47;;;;;;;;;;10513917;28;20093;-76
2022/11/23 23:24:31;;;;;;;5.95;2.00;;;;;;;;;;10500539;28;20405;-75
2022/11/23 23:29:45;;;;;;;6.88;2.08;;;;;;;;;;10510301;28;20319;-76
2022/11/23 23:34:48;;;;;;;2.33;1.00;;;;;;;;;;10511295;28;20101;-75
2022/11/23 23:39:50;;;;;;;5.22;1.70;;;;;;;;;;10510585;28;20048;-75
2022/11/23 23:44:54;;;;;;;2.90;1.23;;;;;;;;;;10509454;28;20045;-75
2022/11/23 23:49:57;;;;;;;5.85;1.70;;;;;;;;;;10510513;28;20051;-75
2022/11/23 23:55:00;;;;;;;5.18;1.75;;;;;;;;;;10516957;28;20075;-74
